sensor_id;sensor_type;location;lat;lon;timestamp;P1;durP1;ratioP1;P2;durP2;ratioP2
69047;SDS011;56119;50.118;8.642;2023-08-21T00:00:14;12.95;;;10.07;;
69047;SDS011;56119;50.118;8.642;2023-08-21T00:02:40;14.07;;;10.45;;
69047;SDS011;56119;50.118;8.642;2023-08-21T00:05:06;12.73;;;11.07;;
69047;SDS011;56119;50.118;8.642;2023-08-21T00:07:32;12.23;;;10.45;;
69047;SDS011;56119;50.118;8.642;2023-08-21T00:09:58;12.43;;;10.52;;
69047;SDS011;56119;50.118;8.642;2023-08-21T00:12:24;12.45;;;9.32;;
69047;SDS011;56119;50.118;8.642;2023-08-21T00:14:50;11.98;;;10.30;;
69047;SDS011;56119;50.118;8.642;2023-08-21T00:17:16;13.38;;;10.13;;
69047;SDS011;56119;50.118;8.642;2023-08-21T00:19:42;13.55;;;11.40;;
69047;SDS011;56119;50.118;8.642;2023-08-21T00:22:08;12.20;;;9.35;;
69047;SDS011;56119;50.118;8.642;2023-08-21T00:24:34;14.23;;;10.43;;
69047;SDS011;56119;50.118;8.642;2023-08-21T00:27:00;10.13;;;8.65;;
69047;SDS011;56119;50.118;8.642;2023-08-21T00:29:28;12.43;;;11.13;;
69047;SDS011;56119;50.118;8.642;2023-08-21T00:31:54;11.88;;;10.50;;
69047;SDS011;56119;50.118;8.642;2023-08-21T00:34:20;15.00;;;10.45;;
69047;SDS011;56119;50.118;8.642;2023-08-21T00:36:46;13.00;;;11.32;;
69047;SDS011;56119;50.118;8.642;2023-08-21T00:39:12;12.57;;;10.95;;
69047;SDS011;56119;50.118;8.642;2023-08-21T00:41:38;11.10;;;9.45;;
69047;SDS011;56119;50.118;8.642;2023-08-21T00:44:04;10.13;;;9.13;;
69047;SDS011;56119;50.118;8.642;2023-08-21T00:46:31;12.38;;;8.80;;
69047;SDS011;56119;50.118;8.642;2023-08-21T00:48:57;11.32;;;8.98;;
69047;SDS011;56119;50.118;8.642;2023-08-21T00:51:23;12.10;;;10.90;;
69047;SDS011;56119;50.118;8.642;2023-08-21T00:53:49;11.10;;;10.00;;
69047;SDS011;56119;50.118;8.642;2023-08-21T00:56:15;10.45;;;8.85;;
69047;SDS011;56119;50.118;8.642;2023-08-21T00:58:42;14.00;;;11.25;;
69047;SDS011;56119;50.118;8.642;2023-08-21T01:01:08;13.07;;;10.88;;
69047;SDS011;56119;50.118;8.642;2023-08-21T01:03:34;12.13;;;9.77;;
69047;SDS011;56119;50.118;8.642;2023-08-21T01:06:00;12.18;;;9.60;;
69047;SDS011;56119;50.118;8.642;2023-08-21T01:10:54;14.20;;;9.02;;
69047;SDS011;56119;50.118;8.642;2023-08-21T01:13:32;10.88;;;9.55;;
69047;SDS011;56119;50.118;8.642;2023-08-21T01:16:00;11.43;;;8.75;;
69047;SDS011;56119;50.118;8.642;2023-08-21T01:18:28;11.15;;;9.48;;
69047;SDS011;56119;50.118;8.642;2023-08-21T01:20:55;10.85;;;9.32;;
69047;SDS011;56119;50.118;8.642;2023-08-21T01:23:27;12.35;;;10.05;;
69047;SDS011;56119;50.118;8.642;2023-08-21T01:25:53;13.85;;;11.25;;
69047;SDS011;56119;50.118;8.642;2023-08-21T01:28:19;12.15;;;10.30;;
69047;SDS011;56119;50.118;8.642;2023-08-21T01:30:45;16.02;;;11.43;;
69047;SDS011;56119;50.118;8.642;2023-08-21T01:33:12;12.52;;;10.50;;
69047;SDS011;56119;50.118;8.642;2023-08-21T01:35:38;12.07;;;9.98;;
69047;SDS011;56119;50.118;8.642;2023-08-21T01:38:05;10.05;;;8.75;;
69047;SDS011;56119;50.118;8.642;2023-08-21T01:40:31;11.02;;;8.90;;
69047;SDS011;56119;50.118;8.642;2023-08-21T01:42:57;11.50;;;10.30;;
69047;SDS011;56119;50.118;8.642;2023-08-21T01:45:23;11.55;;;10.35;;
69047;SDS011;56119;50.118;8.642;2023-08-21T01:47:50;11.55;;;10.32;;
69047;SDS011;56119;50.118;8.642;2023-08-21T01:50:16;13.50;;;10.75;;
69047;SDS011;56119;50.118;8.642;2023-08-21T01:52:42;12.98;;;11.43;;
69047;SDS011;56119;50.118;8.642;2023-08-21T01:55:08;10.60;;;9.48;;
69047;SDS011;56119;50.118;8.642;2023-08-21T01:57:35;12.00;;;10.45;;
69047;SDS011;56119;50.118;8.642;2023-08-21T02:00:01;13.75;;;11.77;;
69047;SDS011;56119;50.118;8.642;2023-08-21T02:02:29;13.18;;;10.95;;
69047;SDS011;56119;50.118;8.642;2023-08-21T02:04:55;13.73;;;11.70;;
69047;SDS011;56119;50.118;8.642;2023-08-21T02:07:21;11.05;;;9.20;;
69047;SDS011;56119;50.118;8.642;2023-08-21T02:09:47;12.45;;;10.77;;
69047;SDS011;56119;50.118;8.642;2023-08-21T02:12:13;14.30;;;10.60;;
69047;SDS011;56119;50.118;8.642;2023-08-21T02:14:39;11.48;;;9.55;;
69047;SDS011;56119;50.118;8.642;2023-08-21T02:17:05;13.52;;;11.88;;
69047;SDS011;56119;50.118;8.642;2023-08-21T02:19:31;12.52;;;11.00;;
69047;SDS011;56119;50.118;8.642;2023-08-21T02:21:57;13.73;;;11.25;;
69047;SDS011;56119;50.118;8.642;2023-08-21T02:24:23;14.32;;;12.93;;
69047;SDS011;56119;50.118;8.642;2023-08-21T02:26:49;10.95;;;9.85;;
69047;SDS011;56119;50.118;8.642;2023-08-21T02:29:15;11.40;;;10.27;;
69047;SDS011;56119;50.118;8.642;2023-08-21T02:31:41;12.35;;;9.57;;
69047;SDS011;56119;50.118;8.642;2023-08-21T02:34:07;12.05;;;9.60;;
69047;SDS011;56119;50.118;8.642;2023-08-21T02:36:33;12.45;;;9.30;;
69047;SDS011;56119;50.118;8.642;2023-08-21T02:39:02;13.07;;;9.13;;
69047;SDS011;56119;50.118;8.642;2023-08-21T02:41:28;14.32;;;11.43;;
69047;SDS011;56119;50.118;8.642;2023-08-21T02:43:54;14.90;;;11.75;;
69047;SDS011;56119;50.118;8.642;2023-08-21T02:46:20;16.02;;;11.57;;
69047;SDS011;56119;50.118;8.642;2023-08-21T02:48:46;14.05;;;12.65;;
69047;SDS011;56119;50.118;8.642;2023-08-21T02:51:12;13.48;;;10.88;;
69047;SDS011;56119;50.118;8.642;2023-08-21T02:53:38;10.90;;;9.40;;
69047;SDS011;56119;50.118;8.642;2023-08-21T02:56:04;13.63;;;10.68;;
69047;SDS011;56119;50.118;8.642;2023-08-21T02:58:30;12.32;;;10.73;;
69047;SDS011;56119;50.118;8.642;2023-08-21T03:00:56;12.85;;;10.20;;
69047;SDS011;56119;50.118;8.642;2023-08-21T03:03:22;12.48;;;11.25;;
69047;SDS011;56119;50.118;8.642;2023-08-21T03:05:48;12.23;;;10.00;;
69047;SDS011;56119;50.118;8.642;2023-08-21T03:08:14;10.93;;;9.82;;
69047;SDS011;56119;50.118;8.642;2023-08-21T03:10:41;14.45;;;10.35;;
69047;SDS011;56119;50.118;8.642;2023-08-21T03:13:07;12.27;;;9.75;;
69047;SDS011;56119;50.118;8.642;2023-08-21T03:15:34;12.43;;;10.68;;
69047;SDS011;56119;50.118;8.642;2023-08-21T03:18:00;15.13;;;10.52;;
69047;SDS011;56119;50.118;8.642;2023-08-21T03:20:26;11.23;;;9.68;;
69047;SDS011;56119;50.118;8.642;2023-08-21T03:22:52;11.20;;;9.02;;
69047;SDS011;56119;50.118;8.642;2023-08-21T03:25:18;13.02;;;9.57;;
69047;SDS011;56119;50.118;8.642;2023-08-21T03:27:44;11.32;;;10.20;;
69047;SDS011;56119;50.118;8.642;2023-08-21T03:30:14;12.07;;;10.40;;
69047;SDS011;56119;50.118;8.642;2023-08-21T03:32:40;12.65;;;11.35;;
69047;SDS011;56119;50.118;8.642;2023-08-21T03:35:06;12.60;;;10.68;;
69047;SDS011;56119;50.118;8.642;2023-08-21T03:37:32;11.98;;;10.77;;
69047;SDS011;56119;50.118;8.642;2023-08-21T03:39:58;11.18;;;10.00;;
69047;SDS011;56119;50.118;8.642;2023-08-21T03:42:24;11.18;;;9.90;;
69047;SDS011;56119;50.118;8.642;2023-08-21T03:44:50;12.95;;;11.30;;
69047;SDS011;56119;50.118;8.642;2023-08-21T03:47:16;13.23;;;11.48;;
69047;SDS011;56119;50.118;8.642;2023-08-21T03:49:42;14.80;;;13.25;;
69047;SDS011;56119;50.118;8.642;2023-08-21T03:52:08;12.95;;;11.60;;
69047;SDS011;56119;50.118;8.642;2023-08-21T03:54:34;15.43;;;13.07;;
69047;SDS011;56119;50.118;8.642;2023-08-21T03:57:00;13.02;;;11.48;;
69047;SDS011;56119;50.118;8.642;2023-08-21T03:59:26;12.45;;;11.15;;
69047;SDS011;56119;50.118;8.642;2023-08-21T04:01:52;11.95;;;9.65;;
69047;SDS011;56119;50.118;8.642;2023-08-21T04:04:18;13.95;;;11.50;;
69047;SDS011;56119;50.118;8.642;2023-08-21T04:06:44;14.20;;;11.38;;
69047;SDS011;56119;50.118;8.642;2023-08-21T04:09:10;13.15;;;10.27;;
69047;SDS011;56119;50.118;8.642;2023-08-21T04:11:36;14.40;;;12.05;;
69047;SDS011;56119;50.118;8.642;2023-08-21T04:14:03;13.55;;;12.20;;
69047;SDS011;56119;50.118;8.642;2023-08-21T04:16:29;12.98;;;10.65;;
69047;SDS011;56119;50.118;8.642;2023-08-21T04:18:56;14.07;;;11.45;;
69047;SDS011;56119;50.118;8.642;2023-08-21T04:21:22;11.68;;;9.77;;
69047;SDS011;56119;50.118;8.642;2023-08-21T04:23:48;13.45;;;10.38;;
69047;SDS011;56119;50.118;8.642;2023-08-21T04:26:14;12.88;;;11.07;;
69047;SDS011;56119;50.118;8.642;2023-08-21T04:28:40;17.25;;;12.32;;
69047;SDS011;56119;50.118;8.642;2023-08-21T04:31:06;12.93;;;10.60;;
69047;SDS011;56119;50.118;8.642;2023-08-21T04:33:33;12.48;;;11.27;;
69047;SDS011;56119;50.118;8.642;2023-08-21T04:35:59;12.68;;;10.77;;
69047;SDS011;56119;50.118;8.642;2023-08-21T04:38:25;13.48;;;11.02;;
69047;SDS011;56119;50.118;8.642;2023-08-21T04:40:51;13.80;;;11.25;;
69047;SDS011;56119;50.118;8.642;2023-08-21T04:43:17;12.52;;;11.25;;
69047;SDS011;56119;50.118;8.642;2023-08-21T04:45:49;12.90;;;10.27;;
69047;SDS011;56119;50.118;8.642;2023-08-21T04:48:17;13.35;;;11.88;;
69047;SDS011;56119;50.118;8.642;2023-08-21T04:50:44;16.52;;;10.98;;
69047;SDS011;56119;50.118;8.642;2023-08-21T04:53:10;12.35;;;11.20;;
69047;SDS011;56119;50.118;8.642;2023-08-21T04:55:36;13.40;;;11.60;;
69047;SDS011;56119;50.118;8.642;2023-08-21T04:58:05;13.20;;;11.80;;
69047;SDS011;56119;50.118;8.642;2023-08-21T05:00:31;11.38;;;9.50;;
69047;SDS011;56119;50.118;8.642;2023-08-21T05:02:57;12.95;;;11.65;;
69047;SDS011;56119;50.118;8.642;2023-08-21T05:05:23;14.75;;;12.10;;
69047;SDS011;56119;50.118;8.642;2023-08-21T05:07:49;13.52;;;10.50;;
69047;SDS011;56119;50.118;8.642;2023-08-21T05:10:15;12.38;;;11.02;;
69047;SDS011;56119;50.118;8.642;2023-08-21T05:12:41;15.45;;;11.35;;
69047;SDS011;56119;50.118;8.642;2023-08-21T05:15:07;13.52;;;11.95;;
69047;SDS011;56119;50.118;8.642;2023-08-21T05:17:33;14.05;;;10.63;;
69047;SDS011;56119;50.118;8.642;2023-08-21T05:19:59;9.68;;;8.70;;
69047;SDS011;56119;50.118;8.642;2023-08-21T05:22:25;13.40;;;9.73;;
69047;SDS011;56119;50.118;8.642;2023-08-21T05:24:51;17.40;;;12.27;;
69047;SDS011;56119;50.118;8.642;2023-08-21T05:27:17;12.25;;;10.82;;
69047;SDS011;56119;50.118;8.642;2023-08-21T05:29:43;12.35;;;9.82;;
69047;SDS011;56119;50.118;8.642;2023-08-21T05:32:09;13.55;;;11.15;;
69047;SDS011;56119;50.118;8.642;2023-08-21T05:34:35;10.52;;;8.65;;
69047;SDS011;56119;50.118;8.642;2023-08-21T05:37:02;11.25;;;9.45;;
69047;SDS011;56119;50.118;8.642;2023-08-21T05:39:27;11.38;;;9.48;;
69047;SDS011;56119;50.118;8.642;2023-08-21T05:41:54;12.07;;;8.80;;
69047;SDS011;56119;50.118;8.642;2023-08-21T05:44:20;10.88;;;9.70;;
69047;SDS011;56119;50.118;8.642;2023-08-21T05:46:46;11.77;;;9.40;;
69047;SDS011;56119;50.118;8.642;2023-08-21T05:49:12;11.60;;;10.50;;
69047;SDS011;56119;50.118;8.642;2023-08-21T05:51:38;12.68;;;10.90;;
69047;SDS011;56119;50.118;8.642;2023-08-21T05:54:04;12.68;;;10.60;;
69047;SDS011;56119;50.118;8.642;2023-08-21T05:56:30;10.82;;;9.32;;
69047;SDS011;56119;50.118;8.642;2023-08-21T05:58:56;12.00;;;10.23;;
69047;SDS011;56119;50.118;8.642;2023-08-21T06:01:21;11.75;;;8.80;;
69047;SDS011;56119;50.118;8.642;2023-08-21T06:03:47;10.48;;;9.00;;
69047;SDS011;56119;50.118;8.642;2023-08-21T06:06:13;18.80;;;10.98;;
69047;SDS011;56119;50.118;8.642;2023-08-21T06:08:39;10.68;;;8.70;;
69047;SDS011;56119;50.118;8.642;2023-08-21T06:11:05;10.57;;;9.40;;
69047;SDS011;56119;50.118;8.642;2023-08-21T06:13:31;15.63;;;9.70;;
69047;SDS011;56119;50.118;8.642;2023-08-21T06:15:57;12.25;;;9.00;;
69047;SDS011;56119;50.118;8.642;2023-08-21T06:18:23;12.88;;;9.27;;
69047;SDS011;56119;50.118;8.642;2023-08-21T06:20:49;9.32;;;8.30;;
69047;SDS011;56119;50.118;8.642;2023-08-21T06:23:19;11.02;;;9.77;;
69047;SDS011;56119;50.118;8.642;2023-08-21T06:25:47;13.00;;;7.97;;
69047;SDS011;56119;50.118;8.642;2023-08-21T06:28:13;10.85;;;9.70;;
69047;SDS011;56119;50.118;8.642;2023-08-21T06:30:39;13.02;;;10.82;;
69047;SDS011;56119;50.118;8.642;2023-08-21T06:33:05;9.43;;;8.40;;
69047;SDS011;56119;50.118;8.642;2023-08-21T06:35:31;10.95;;;9.52;;
69047;SDS011;56119;50.118;8.642;2023-08-21T06:37:57;11.10;;;9.27;;
69047;SDS011;56119;50.118;8.642;2023-08-21T06:40:23;10.98;;;8.10;;
69047;SDS011;56119;50.118;8.642;2023-08-21T06:42:49;13.55;;;9.25;;
69047;SDS011;56119;50.118;8.642;2023-08-21T06:45:16;9.73;;;8.73;;
69047;SDS011;56119;50.118;8.642;2023-08-21T06:47:42;9.88;;;8.55;;
69047;SDS011;56119;50.118;8.642;2023-08-21T06:50:09;8.18;;;7.40;;
69047;SDS011;56119;50.118;8.642;2023-08-21T06:52:35;8.82;;;7.32;;
69047;SDS011;56119;50.118;8.642;2023-08-21T06:55:01;12.10;;;9.77;;
69047;SDS011;56119;50.118;8.642;2023-08-21T06:57:27;8.88;;;7.97;;
69047;SDS011;56119;50.118;8.642;2023-08-21T06:59:53;10.13;;;8.32;;
69047;SDS011;56119;50.118;8.642;2023-08-21T07:02:19;10.27;;;8.23;;
69047;SDS011;56119;50.118;8.642;2023-08-21T07:04:45;10.25;;;8.13;;
69047;SDS011;56119;50.118;8.642;2023-08-21T07:07:11;9.70;;;8.00;;
69047;SDS011;56119;50.118;8.642;2023-08-21T07:09:37;10.38;;;7.68;;
69047;SDS011;56119;50.118;8.642;2023-08-21T07:12:03;15.88;;;10.18;;
69047;SDS011;56119;50.118;8.642;2023-08-21T07:14:29;9.57;;;7.38;;
69047;SDS011;56119;50.118;8.642;2023-08-21T07:16:55;14.95;;;7.95;;
69047;SDS011;56119;50.118;8.642;2023-08-21T07:19:21;9.18;;;8.07;;
69047;SDS011;56119;50.118;8.642;2023-08-21T07:21:47;10.00;;;8.88;;
69047;SDS011;56119;50.118;8.642;2023-08-21T07:24:13;11.00;;;8.57;;
69047;SDS011;56119;50.118;8.642;2023-08-21T07:26:39;10.93;;;8.02;;
69047;SDS011;56119;50.118;8.642;2023-08-21T07:29:05;11.85;;;7.45;;
69047;SDS011;56119;50.118;8.642;2023-08-21T07:31:31;9.27;;;7.63;;
69047;SDS011;56119;50.118;8.642;2023-08-21T07:33:57;8.77;;;7.88;;
69047;SDS011;56119;50.118;8.642;2023-08-21T07:36:23;13.52;;;7.93;;
69047;SDS011;56119;50.118;8.642;2023-08-21T07:38:49;12.15;;;8.98;;
69047;SDS011;56119;50.118;8.642;2023-08-21T07:41:15;9.90;;;8.27;;
69047;SDS011;56119;50.118;8.642;2023-08-21T07:43:42;13.80;;;10.93;;
69047;SDS011;56119;50.118;8.642;2023-08-21T07:46:09;11.93;;;8.23;;
69047;SDS011;56119;50.118;8.642;2023-08-21T07:48:38;12.40;;;9.05;;
69047;SDS011;56119;50.118;8.642;2023-08-21T07:51:04;13.93;;;9.18;;
69047;SDS011;56119;50.118;8.642;2023-08-21T07:53:30;9.65;;;7.95;;
69047;SDS011;56119;50.118;8.642;2023-08-21T07:55:56;11.05;;;8.73;;
69047;SDS011;56119;50.118;8.642;2023-08-21T07:58:22;12.23;;;8.52;;
69047;SDS011;56119;50.118;8.642;2023-08-21T08:00:48;9.30;;;7.85;;
69047;SDS011;56119;50.118;8.642;2023-08-21T08:03:14;10.05;;;8.77;;
69047;SDS011;56119;50.118;8.642;2023-08-21T08:05:41;11.13;;;8.23;;
69047;SDS011;56119;50.118;8.642;2023-08-21T08:08:07;11.27;;;8.60;;
69047;SDS011;56119;50.118;8.642;2023-08-21T08:10:33;11.52;;;8.57;;
69047;SDS011;56119;50.118;8.642;2023-08-21T08:12:59;13.50;;;7.97;;
69047;SDS011;56119;50.118;8.642;2023-08-21T08:15:25;11.75;;;9.07;;
69047;SDS011;56119;50.118;8.642;2023-08-21T08:17:53;10.15;;;8.73;;
69047;SDS011;56119;50.118;8.642;2023-08-21T08:20:20;10.38;;;8.40;;
69047;SDS011;56119;50.118;8.642;2023-08-21T08:22:46;10.10;;;8.93;;
69047;SDS011;56119;50.118;8.642;2023-08-21T08:25:12;12.75;;;9.00;;
69047;SDS011;56119;50.118;8.642;2023-08-21T08:27:38;11.45;;;9.57;;
69047;SDS011;56119;50.118;8.642;2023-08-21T08:30:04;10.70;;;9.07;;
69047;SDS011;56119;50.118;8.642;2023-08-21T08:32:30;13.15;;;10.00;;
69047;SDS011;56119;50.118;8.642;2023-08-21T08:34:56;9.68;;;8.23;;
69047;SDS011;56119;50.118;8.642;2023-08-21T08:37:22;10.27;;;8.07;;
69047;SDS011;56119;50.118;8.642;2023-08-21T08:39:48;11.20;;;8.00;;
69047;SDS011;56119;50.118;8.642;2023-08-21T08:42:14;9.68;;;8.68;;
69047;SDS011;56119;50.118;8.642;2023-08-21T08:44:41;10.63;;;8.05;;
69047;SDS011;56119;50.118;8.642;2023-08-21T08:47:08;11.07;;;8.43;;
69047;SDS011;56119;50.118;8.642;2023-08-21T08:49:34;11.38;;;9.50;;
69047;SDS011;56119;50.118;8.642;2023-08-21T08:52:00;12.18;;;7.90;;
69047;SDS011;56119;50.118;8.642;2023-08-21T08:54:27;10.30;;;8.32;;
69047;SDS011;56119;50.118;8.642;2023-08-21T08:56:53;9.13;;;7.63;;
69047;SDS011;56119;50.118;8.642;2023-08-21T08:59:19;12.32;;;9.70;;
69047;SDS011;56119;50.118;8.642;2023-08-21T09:01:45;10.43;;;9.25;;
69047;SDS011;56119;50.118;8.642;2023-08-21T09:04:11;11.50;;;8.60;;
69047;SDS011;56119;50.118;8.642;2023-08-21T09:06:37;8.68;;;7.65;;
69047;SDS011;56119;50.118;8.642;2023-08-21T09:09:04;11.00;;;9.20;;
69047;SDS011;56119;50.118;8.642;2023-08-21T09:11:30;10.55;;;8.10;;
69047;SDS011;56119;50.118;8.642;2023-08-21T09:13:58;8.65;;;7.30;;
69047;SDS011;56119;50.118;8.642;2023-08-21T09:16:24;9.75;;;8.13;;
69047;SDS011;56119;50.118;8.642;2023-08-21T09:19:00;10.45;;;9.10;;
69047;SDS011;56119;50.118;8.642;2023-08-21T09:21:26;10.48;;;9.38;;
69047;SDS011;56119;50.118;8.642;2023-08-21T09:23:57;12.32;;;8.75;;
69047;SDS011;56119;50.118;8.642;2023-08-21T09:26:24;10.45;;;8.32;;
69047;SDS011;56119;50.118;8.642;2023-08-21T09:28:51;10.85;;;8.20;;
69047;SDS011;56119;50.118;8.642;2023-08-21T09:31:23;9.50;;;8.35;;
69047;SDS011;56119;50.118;8.642;2023-08-21T09:33:57;14.35;;;8.98;;
69047;SDS011;56119;50.118;8.642;2023-08-21T09:36:23;11.18;;;9.48;;
69047;SDS011;56119;50.118;8.642;2023-08-21T09:38:50;9.45;;;8.45;;
69047;SDS011;56119;50.118;8.642;2023-08-21T09:41:20;10.07;;;8.13;;
69047;SDS011;56119;50.118;8.642;2023-08-21T09:43:46;11.15;;;8.13;;
69047;SDS011;56119;50.118;8.642;2023-08-21T09:46:16;10.15;;;8.77;;
69047;SDS011;56119;50.118;8.642;2023-08-21T09:48:43;11.77;;;8.48;;
69047;SDS011;56119;50.118;8.642;2023-08-21T09:51:12;16.00;;;9.30;;
69047;SDS011;56119;50.118;8.642;2023-08-21T09:53:38;10.45;;;8.98;;
69047;SDS011;56119;50.118;8.642;2023-08-21T09:56:06;9.65;;;7.78;;
69047;SDS011;56119;50.118;8.642;2023-08-21T09:58:34;11.38;;;8.88;;
69047;SDS011;56119;50.118;8.642;2023-08-21T10:01:00;10.80;;;8.43;;
69047;SDS011;56119;50.118;8.642;2023-08-21T10:03:28;10.82;;;7.88;;
69047;SDS011;56119;50.118;8.642;2023-08-21T10:05:56;11.18;;;8.25;;
69047;SDS011;56119;50.118;8.642;2023-08-21T10:08:24;15.77;;;9.80;;
69047;SDS011;56119;50.118;8.642;2023-08-21T10:10:50;9.95;;;7.60;;
69047;SDS011;56119;50.118;8.642;2023-08-21T10:13:17;10.75;;;7.90;;
69047;SDS011;56119;50.118;8.642;2023-08-21T10:15:43;10.57;;;7.72;;
69047;SDS011;56119;50.118;8.642;2023-08-21T10:18:20;10.55;;;7.22;;
69047;SDS011;56119;50.118;8.642;2023-08-21T10:20:46;10.10;;;7.85;;
69047;SDS011;56119;50.118;8.642;2023-08-21T10:23:29;9.40;;;6.45;;
69047;SDS011;56119;50.118;8.642;2023-08-21T10:25:56;8.65;;;6.25;;
69047;SDS011;56119;50.118;8.642;2023-08-21T10:28:22;8.57;;;6.93;;
69047;SDS011;56119;50.118;8.642;2023-08-21T10:30:48;10.43;;;6.55;;
69047;SDS011;56119;50.118;8.642;2023-08-21T10:33:14;7.13;;;5.90;;
69047;SDS011;56119;50.118;8.642;2023-08-21T10:35:40;11.50;;;8.20;;
69047;SDS011;56119;50.118;8.642;2023-08-21T10:40:36;10.05;;;8.88;;
69047;SDS011;56119;50.118;8.642;2023-08-21T10:43:36;6.93;;;5.40;;
69047;SDS011;56119;50.118;8.642;2023-08-21T10:45:54;8.05;;;6.18;;
69047;SDS011;56119;50.118;8.642;2023-08-21T10:48:21;10.65;;;7.70;;
69047;SDS011;56119;50.118;8.642;2023-08-21T10:50:47;9.40;;;6.70;;
69047;SDS011;56119;50.118;8.642;2023-08-21T10:53:13;9.15;;;6.65;;
69047;SDS011;56119;50.118;8.642;2023-08-21T10:55:39;11.02;;;7.65;;
69047;SDS011;56119;50.118;8.642;2023-08-21T10:58:07;10.55;;;5.82;;
69047;SDS011;56119;50.118;8.642;2023-08-21T11:00:36;11.43;;;6.72;;
69047;SDS011;56119;50.118;8.642;2023-08-21T11:03:02;7.05;;;4.68;;
69047;SDS011;56119;50.118;8.642;2023-08-21T11:05:28;8.05;;;4.72;;
69047;SDS011;56119;50.118;8.642;2023-08-21T11:07:54;6.93;;;4.78;;
69047;SDS011;56119;50.118;8.642;2023-08-21T11:10:23;7.00;;;4.45;;
69047;SDS011;56119;50.118;8.642;2023-08-21T11:15:18;4.53;;;3.45;;
69047;SDS011;56119;50.118;8.642;2023-08-21T11:17:51;4.72;;;3.83;;
69047;SDS011;56119;50.118;8.642;2023-08-21T11:20:17;5.75;;;3.80;;
69047;SDS011;56119;50.118;8.642;2023-08-21T11:22:43;3.65;;;3.03;;
69047;SDS011;56119;50.118;8.642;2023-08-21T11:25:09;8.25;;;3.78;;
69047;SDS011;56119;50.118;8.642;2023-08-21T11:27:35;4.20;;;3.60;;
69047;SDS011;56119;50.118;8.642;2023-08-21T11:30:01;4.93;;;3.42;;
69047;SDS011;56119;50.118;8.642;2023-08-21T11:32:28;3.30;;;3.00;;
69047;SDS011;56119;50.118;8.642;2023-08-21T11:34:54;4.40;;;2.55;;
69047;SDS011;56119;50.118;8.642;2023-08-21T11:37:21;5.00;;;2.90;;
69047;SDS011;56119;50.118;8.642;2023-08-21T11:39:48;4.40;;;2.50;;
69047;SDS011;56119;50.118;8.642;2023-08-21T11:42:16;4.53;;;2.75;;
69047;SDS011;56119;50.118;8.642;2023-08-21T11:44:51;3.70;;;2.78;;
69047;SDS011;56119;50.118;8.642;2023-08-21T11:47:19;4.35;;;2.65;;
69047;SDS011;56119;50.118;8.642;2023-08-21T11:49:45;3.65;;;2.22;;
69047;SDS011;56119;50.118;8.642;2023-08-21T11:52:17;8.70;;;3.28;;
69047;SDS011;56119;50.118;8.642;2023-08-21T11:54:46;3.42;;;2.28;;
69047;SDS011;56119;50.118;8.642;2023-08-21T11:57:13;4.50;;;2.10;;
69047;SDS011;56119;50.118;8.642;2023-08-21T11:59:40;2.85;;;2.33;;
69047;SDS011;56119;50.118;8.642;2023-08-21T12:02:17;2.90;;;2.20;;
69047;SDS011;56119;50.118;8.642;2023-08-21T12:04:44;2.17;;;1.83;;
69047;SDS011;56119;50.118;8.642;2023-08-21T12:07:10;6.53;;;2.70;;
69047;SDS011;56119;50.118;8.642;2023-08-21T12:09:36;2.35;;;1.80;;
69047;SDS011;56119;50.118;8.642;2023-08-21T12:12:02;3.85;;;1.73;;
69047;SDS011;56119;50.118;8.642;2023-08-21T12:14:28;2.97;;;1.95;;
69047;SDS011;56119;50.118;8.642;2023-08-21T12:16:55;4.20;;;2.42;;
69047;SDS011;56119;50.118;8.642;2023-08-21T12:19:22;3.80;;;2.35;;
69047;SDS011;56119;50.118;8.642;2023-08-21T12:21:48;3.47;;;2.00;;
69047;SDS011;56119;50.118;8.642;2023-08-21T12:24:14;2.58;;;2.30;;
69047;SDS011;56119;50.118;8.642;2023-08-21T12:26:40;3.10;;;2.08;;
69047;SDS011;56119;50.118;8.642;2023-08-21T12:29:06;2.30;;;1.90;;
69047;SDS011;56119;50.118;8.642;2023-08-21T12:31:32;6.15;;;3.67;;
69047;SDS011;56119;50.118;8.642;2023-08-21T12:33:58;4.35;;;2.05;;
69047;SDS011;56119;50.118;8.642;2023-08-21T12:36:24;2.05;;;1.85;;
69047;SDS011;56119;50.118;8.642;2023-08-21T12:38:50;2.83;;;1.85;;
69047;SDS011;56119;50.118;8.642;2023-08-21T12:41:16;1.65;;;1.45;;
69047;SDS011;56119;50.118;8.642;2023-08-21T12:43:42;2.75;;;1.92;;
69047;SDS011;56119;50.118;8.642;2023-08-21T12:46:08;2.55;;;1.38;;
69047;SDS011;56119;50.118;8.642;2023-08-21T12:48:34;5.22;;;1.40;;
69047;SDS011;56119;50.118;8.642;2023-08-21T12:51:01;3.08;;;2.03;;
69047;SDS011;56119;50.118;8.642;2023-08-21T12:53:27;3.47;;;2.80;;
69047;SDS011;56119;50.118;8.642;2023-08-21T12:55:53;2.47;;;2.08;;
69047;SDS011;56119;50.118;8.642;2023-08-21T12:58:19;3.22;;;2.47;;
69047;SDS011;56119;50.118;8.642;2023-08-21T13:00:45;3.53;;;2.40;;
69047;SDS011;56119;50.118;8.642;2023-08-21T13:03:11;4.37;;;2.60;;
69047;SDS011;56119;50.118;8.642;2023-08-21T13:05:37;3.73;;;2.40;;
69047;SDS011;56119;50.118;8.642;2023-08-21T13:08:03;4.68;;;2.25;;
69047;SDS011;56119;50.118;8.642;2023-08-21T13:10:29;5.07;;;2.08;;
69047;SDS011;56119;50.118;8.642;2023-08-21T13:12:55;2.25;;;2.05;;
69047;SDS011;56119;50.118;8.642;2023-08-21T13:15:21;4.43;;;2.35;;
69047;SDS011;56119;50.118;8.642;2023-08-21T13:17:47;6.35;;;2.88;;
69047;SDS011;56119;50.118;8.642;2023-08-21T13:20:13;3.92;;;2.97;;
69047;SDS011;56119;50.118;8.642;2023-08-21T13:22:49;9.07;;;3.05;;
69047;SDS011;56119;50.118;8.642;2023-08-21T13:25:17;4.80;;;3.33;;
69047;SDS011;56119;50.118;8.642;2023-08-21T13:27:43;3.60;;;3.05;;
69047;SDS011;56119;50.118;8.642;2023-08-21T13:30:09;5.60;;;3.45;;
69047;SDS011;56119;50.118;8.642;2023-08-21T13:32:35;4.10;;;3.17;;
69047;SDS011;56119;50.118;8.642;2023-08-21T13:35:01;4.05;;;3.10;;
69047;SDS011;56119;50.118;8.642;2023-08-21T13:37:30;4.75;;;3.13;;
69047;SDS011;56119;50.118;8.642;2023-08-21T13:39:56;5.32;;;3.60;;
69047;SDS011;56119;50.118;8.642;2023-08-21T13:42:24;4.55;;;3.58;;
69047;SDS011;56119;50.118;8.642;2023-08-21T13:44:50;5.85;;;3.50;;
69047;SDS011;56119;50.118;8.642;2023-08-21T13:47:16;4.60;;;3.00;;
69047;SDS011;56119;50.118;8.642;2023-08-21T13:49:42;5.03;;;3.30;;
69047;SDS011;56119;50.118;8.642;2023-08-21T13:52:08;4.40;;;3.00;;
69047;SDS011;56119;50.118;8.642;2023-08-21T13:54:34;5.43;;;3.67;;
69047;SDS011;56119;50.118;8.642;2023-08-21T13:57:00;6.70;;;4.65;;
69047;SDS011;56119;50.118;8.642;2023-08-21T13:59:26;7.55;;;3.55;;
69047;SDS011;56119;50.118;8.642;2023-08-21T14:01:52;4.18;;;3.78;;
69047;SDS011;56119;50.118;8.642;2023-08-21T14:04:18;5.57;;;4.25;;
69047;SDS011;56119;50.118;8.642;2023-08-21T14:06:44;4.65;;;3.78;;
69047;SDS011;56119;50.118;8.642;2023-08-21T14:09:10;6.93;;;3.15;;
69047;SDS011;56119;50.118;8.642;2023-08-21T14:11:36;4.65;;;2.72;;
69047;SDS011;56119;50.118;8.642;2023-08-21T14:14:02;7.07;;;3.53;;
69047;SDS011;56119;50.118;8.642;2023-08-21T14:16:28;7.37;;;3.83;;
69047;SDS011;56119;50.118;8.642;2023-08-21T14:18:54;7.45;;;4.30;;
69047;SDS011;56119;50.118;8.642;2023-08-21T14:21:20;5.65;;;3.90;;
69047;SDS011;56119;50.118;8.642;2023-08-21T14:23:46;4.30;;;3.25;;
69047;SDS011;56119;50.118;8.642;2023-08-21T14:26:12;6.45;;;3.40;;
69047;SDS011;56119;50.118;8.642;2023-08-21T14:28:38;3.90;;;3.17;;
69047;SDS011;56119;50.118;8.642;2023-08-21T14:31:04;5.68;;;3.85;;
69047;SDS011;56119;50.118;8.642;2023-08-21T14:33:30;3.45;;;3.00;;
69047;SDS011;56119;50.118;8.642;2023-08-21T14:35:56;4.28;;;3.47;;
69047;SDS011;56119;50.118;8.642;2023-08-21T14:38:22;5.25;;;3.58;;